sensor_id;sensor_type;location;lat;lon;timestamp;temperature;humidity
4509;DHT22;2267;48.816;9.230;2022-08-19T00:01:33;25.00;80.90
4509;DHT22;2267;48.816;9.230;2022-08-19T00:04:06;25.00;81.10
4509;DHT22;2267;48.816;9.230;2022-08-19T00:06:34;25.00;81.00
4509;DHT22;2267;48.816;9.230;2022-08-19T00:09:04;25.00;81.20
4509;DHT22;2267;48.816;9.230;2022-08-19T00:11:31;25.00;81.30
4509;DHT22;2267;48.816;9.230;2022-08-19T00:13:58;25.00;81.40
4509;DHT22;2267;48.816;9.230;2022-08-19T00:16:26;25.00;81.30
4509;DHT22;2267;48.816;9.230;2022-08-19T00:18:54;25.00;81.30
4509;DHT22;2267;48.816;9.230;2022-08-19T00:21:23;24.90;81.20
4509;DHT22;2267;48.816;9.230;2022-08-19T00:23:51;24.90;81.40
4509;DHT22;2267;48.816;9.230;2022-08-19T00:26:18;24.80;81.50
4509;DHT22;2267;48.816;9.230;2022-08-19T00:28:45;24.80;81.60
4509;DHT22;2267;48.816;9.230;2022-08-19T00:31:12;24.80;81.60
4509;DHT22;2267;48.816;9.230;2022-08-19T00:33:39;24.90;81.80
4509;DHT22;2267;48.816;9.230;2022-08-19T00:36:07;24.80;81.70
4509;DHT22;2267;48.816;9.230;2022-08-19T00:38:37;24.90;81.60
4509;DHT22;2267;48.816;9.230;2022-08-19T00:41:08;24.80;81.70
4509;DHT22;2267;48.816;9.230;2022-08-19T00:43:35;24.80;81.80
4509;DHT22;2267;48.816;9.230;2022-08-19T00:46:02;24.80;82.00
4509;DHT22;2267;48.816;9.230;2022-08-19T00:48:32;24.70;81.90
4509;DHT22;2267;48.816;9.230;2022-08-19T00:51:00;24.70;82.10
4509;DHT22;2267;48.816;9.230;2022-08-19T00:53:29;24.70;82.30
4509;DHT22;2267;48.816;9.230;2022-08-19T00:55:59;24.70;82.20
4509;DHT22;2267;48.816;9.230;2022-08-19T00:58:31;24.70;82.30
4509;DHT22;2267;48.816;9.230;2022-08-19T01:01:00;24.70;82.30
4509;DHT22;2267;48.816;9.230;2022-08-19T01:03:27;24.70;82.40
4509;DHT22;2267;48.816;9.230;2022-08-19T01:06:14;24.70;82.00
4509;DHT22;2267;48.816;9.230;2022-08-19T01:08:45;24.70;82.00
4509;DHT22;2267;48.816;9.230;2022-08-19T01:11:16;24.70;82.00
4509;DHT22;2267;48.816;9.230;2022-08-19T01:13:43;24.80;82.20
4509;DHT22;2267;48.816;9.230;2022-08-19T01:16:17;24.70;82.00
4509;DHT22;2267;48.816;9.230;2022-08-19T01:18:45;24.70;82.10
4509;DHT22;2267;48.816;9.230;2022-08-19T01:23:51;24.70;83.00
4509;DHT22;2267;48.816;9.230;2022-08-19T01:26:21;24.70;82.20
4509;DHT22;2267;48.816;9.230;2022-08-19T01:28:51;24.70;82.40
4509;DHT22;2267;48.816;9.230;2022-08-19T01:31:23;24.70;82.40
4509;DHT22;2267;48.816;9.230;2022-08-19T01:33:55;24.70;82.40
4509;DHT22;2267;48.816;9.230;2022-08-19T01:36:36;24.70;82.50
4509;DHT22;2267;48.816;9.230;2022-08-19T01:39:07;24.70;82.50
4509;DHT22;2267;48.816;9.230;2022-08-19T01:41:34;24.70;82.60
4509;DHT22;2267;48.816;9.230;2022-08-19T01:44:01;24.70;82.70
4509;DHT22;2267;48.816;9.230;2022-08-19T01:46:45;24.60;82.80
4509;DHT22;2267;48.816;9.230;2022-08-19T01:49:15;24.60;82.80
4509;DHT22;2267;48.816;9.230;2022-08-19T01:51:42;24.60;83.00
4509;DHT22;2267;48.816;9.230;2022-08-19T01:54:10;24.60;83.20
4509;DHT22;2267;48.816;9.230;2022-08-19T01:56:39;24.50;83.20
4509;DHT22;2267;48.816;9.230;2022-08-19T01:59:13;24.50;83.40
4509;DHT22;2267;48.816;9.230;2022-08-19T02:01:40;24.50;83.60
4509;DHT22;2267;48.816;9.230;2022-08-19T02:04:08;24.50;83.70
4509;DHT22;2267;48.816;9.230;2022-08-19T02:06:35;24.50;83.80
4509;DHT22;2267;48.816;9.230;2022-08-19T02:09:06;24.50;83.80
4509;DHT22;2267;48.816;9.230;2022-08-19T02:11:34;24.50;84.00
4509;DHT22;2267;48.816;9.230;2022-08-19T02:14:07;24.40;84.10
4509;DHT22;2267;48.816;9.230;2022-08-19T02:16:35;24.40;84.20
4509;DHT22;2267;48.816;9.230;2022-08-19T02:19:03;24.40;84.30
4509;DHT22;2267;48.816;9.230;2022-08-19T02:21:30;24.40;84.40
4509;DHT22;2267;48.816;9.230;2022-08-19T02:23:57;24.40;84.50
4509;DHT22;2267;48.816;9.230;2022-08-19T02:26:25;24.40;84.60
4509;DHT22;2267;48.816;9.230;2022-08-19T02:28:53;24.30;84.80
4509;DHT22;2267;48.816;9.230;2022-08-19T02:31:23;24.30;84.90
4509;DHT22;2267;48.816;9.230;2022-08-19T02:33:52;24.30;85.10
4509;DHT22;2267;48.816;9.230;2022-08-19T02:36:23;24.30;85.30
4509;DHT22;2267;48.816;9.230;2022-08-19T02:38:51;24.20;85.50
4509;DHT22;2267;48.816;9.230;2022-08-19T02:41:32;24.20;85.80
4509;DHT22;2267;48.816;9.230;2022-08-19T02:44:02;24.20;86.00
4509;DHT22;2267;48.816;9.230;2022-08-19T02:46:50;24.10;86.10
4509;DHT22;2267;48.816;9.230;2022-08-19T02:49:18;24.10;86.30
4509;DHT22;2267;48.816;9.230;2022-08-19T02:51:46;24.00;86.30
4509;DHT22;2267;48.816;9.230;2022-08-19T02:54:14;24.00;86.50
4509;DHT22;2267;48.816;9.230;2022-08-19T02:56:41;24.00;86.70
4509;DHT22;2267;48.816;9.230;2022-08-19T02:59:09;24.00;87.10
4509;DHT22;2267;48.816;9.230;2022-08-19T03:01:38;24.00;88.10
4509;DHT22;2267;48.816;9.230;2022-08-19T03:04:09;24.00;87.40
4509;DHT22;2267;48.816;9.230;2022-08-19T03:06:41;24.00;87.60
4509;DHT22;2267;48.816;9.230;2022-08-19T03:09:08;23.90;87.80
4509;DHT22;2267;48.816;9.230;2022-08-19T03:11:35;23.90;87.90
4509;DHT22;2267;48.816;9.230;2022-08-19T03:14:03;23.90;88.00
4509;DHT22;2267;48.816;9.230;2022-08-19T03:16:34;23.90;88.10
4509;DHT22;2267;48.816;9.230;2022-08-19T03:19:01;23.90;88.20
4509;DHT22;2267;48.816;9.230;2022-08-19T03:21:31;23.90;88.00
4509;DHT22;2267;48.816;9.230;2022-08-19T03:24:00;23.90;88.00
4509;DHT22;2267;48.816;9.230;2022-08-19T03:26:27;23.90;87.80
4509;DHT22;2267;48.816;9.230;2022-08-19T03:28:54;23.80;87.80
4509;DHT22;2267;48.816;9.230;2022-08-19T03:31:25;23.80;88.10
4509;DHT22;2267;48.816;9.230;2022-08-19T03:34:19;23.80;88.20
4509;DHT22;2267;48.816;9.230;2022-08-19T03:36:47;23.70;88.20
4509;DHT22;2267;48.816;9.230;2022-08-19T03:39:15;23.80;88.20
4509;DHT22;2267;48.816;9.230;2022-08-19T03:41:43;23.70;88.20
4509;DHT22;2267;48.816;9.230;2022-08-19T03:44:16;23.70;88.40
4509;DHT22;2267;48.816;9.230;2022-08-19T03:46:47;23.70;88.60
4509;DHT22;2267;48.816;9.230;2022-08-19T03:49:14;23.70;88.50
4509;DHT22;2267;48.816;9.230;2022-08-19T03:51:43;23.70;88.50
4509;DHT22;2267;48.816;9.230;2022-08-19T03:54:13;23.70;88.60
4509;DHT22;2267;48.816;9.230;2022-08-19T03:56:42;23.70;88.60
4509;DHT22;2267;48.816;9.230;2022-08-19T03:59:13;23.70;88.70
4509;DHT22;2267;48.816;9.230;2022-08-19T04:01:41;23.70;89.60
4509;DHT22;2267;48.816;9.230;2022-08-19T04:04:07;23.60;88.80
4509;DHT22;2267;48.816;9.230;2022-08-19T04:06:36;23.60;88.90
4509;DHT22;2267;48.816;9.230;2022-08-19T04:09:08;23.60;88.90
4509;DHT22;2267;48.816;9.230;2022-08-19T04:11:44;23.50;88.90
4509;DHT22;2267;48.816;9.230;2022-08-19T04:14:14;23.60;89.20
4509;DHT22;2267;48.816;9.230;2022-08-19T04:16:41;23.60;89.20
4509;DHT22;2267;48.816;9.230;2022-08-19T04:19:11;23.50;89.30
4509;DHT22;2267;48.816;9.230;2022-08-19T04:21:38;23.50;89.40
4509;DHT22;2267;48.816;9.230;2022-08-19T04:24:06;23.50;89.50
4509;DHT22;2267;48.816;9.230;2022-08-19T04:26:35;23.50;89.50
4509;DHT22;2267;48.816;9.230;2022-08-19T04:29:12;23.50;89.50
4509;DHT22;2267;48.816;9.230;2022-08-19T04:31:40;23.50;89.50
4509;DHT22;2267;48.816;9.230;2022-08-19T04:34:10;23.50;89.60
4509;DHT22;2267;48.816;9.230;2022-08-19T04:36:39;23.50;89.70
4509;DHT22;2267;48.816;9.230;2022-08-19T04:39:09;23.50;89.80
4509;DHT22;2267;48.816;9.230;2022-08-19T04:41:36;23.50;89.70
4509;DHT22;2267;48.816;9.230;2022-08-19T04:44:22;23.50;89.70
4509;DHT22;2267;48.816;9.230;2022-08-19T04:46:50;23.50;89.80
4509;DHT22;2267;48.816;9.230;2022-08-19T04:49:19;23.50;89.70
4509;DHT22;2267;48.816;9.230;2022-08-19T04:51:46;23.50;89.90
4509;DHT22;2267;48.816;9.230;2022-08-19T04:54:17;23.50;89.90
4509;DHT22;2267;48.816;9.230;2022-08-19T04:57:04;23.40;90.00
4509;DHT22;2267;48.816;9.230;2022-08-19T04:59:33;23.40;90.00
4509;DHT22;2267;48.816;9.230;2022-08-19T05:02:01;23.40;90.00
4509;DHT22;2267;48.816;9.230;2022-08-19T05:04:27;23.50;90.10
4509;DHT22;2267;48.816;9.230;2022-08-19T05:06:58;23.40;90.00
4509;DHT22;2267;48.816;9.230;2022-08-19T05:09:27;23.40;90.00
4509;DHT22;2267;48.816;9.230;2022-08-19T05:12:14;23.40;90.00
4509;DHT22;2267;48.816;9.230;2022-08-19T05:14:42;23.40;90.10
4509;DHT22;2267;48.816;9.230;2022-08-19T05:17:09;23.40;90.10
4509;DHT22;2267;48.816;9.230;2022-08-19T05:19:54;23.30;90.10
4509;DHT22;2267;48.816;9.230;2022-08-19T05:22:41;23.40;90.20
4509;DHT22;2267;48.816;9.230;2022-08-19T05:25:11;23.30;90.20
4509;DHT22;2267;48.816;9.230;2022-08-19T05:27:40;23.30;90.20
4509;DHT22;2267;48.816;9.230;2022-08-19T05:30:07;23.30;90.20
4509;DHT22;2267;48.816;9.230;2022-08-19T05:32:34;23.30;90.30
4509;DHT22;2267;48.816;9.230;2022-08-19T05:35:01;23.30;90.30
4509;DHT22;2267;48.816;9.230;2022-08-19T05:37:28;23.30;90.40
4509;DHT22;2267;48.816;9.230;2022-08-19T05:39:55;23.30;90.40
4509;DHT22;2267;48.816;9.230;2022-08-19T05:42:22;23.30;90.40
4509;DHT22;2267;48.816;9.230;2022-08-19T05:44:51;23.30;90.40
4509;DHT22;2267;48.816;9.230;2022-08-19T05:47:18;23.20;90.40
4509;DHT22;2267;48.816;9.230;2022-08-19T05:49:47;23.20;90.50
4509;DHT22;2267;48.816;9.230;2022-08-19T05:52:16;23.20;90.50
4509;DHT22;2267;48.816;9.230;2022-08-19T05:54:45;23.20;90.50
4509;DHT22;2267;48.816;9.230;2022-08-19T05:57:18;23.20;90.60
4509;DHT22;2267;48.816;9.230;2022-08-19T05:59:45;23.20;90.60
4509;DHT22;2267;48.816;9.230;2022-08-19T06:02:25;23.20;90.70
4509;DHT22;2267;48.816;9.230;2022-08-19T06:04:52;23.30;90.80
4509;DHT22;2267;48.816;9.230;2022-08-19T06:07:19;23.20;90.80
4509;DHT22;2267;48.816;9.230;2022-08-19T06:09:46;23.20;90.80
4509;DHT22;2267;48.816;9.230;2022-08-19T06:12:27;23.20;90.80
4509;DHT22;2267;48.816;9.230;2022-08-19T06:14:59;23.20;90.90
4509;DHT22;2267;48.816;9.230;2022-08-19T06:17:27;23.20;91.00
4509;DHT22;2267;48.816;9.230;2022-08-19T06:19:55;23.30;91.10
4509;DHT22;2267;48.816;9.230;2022-08-19T06:22:23;23.30;91.10
4509;DHT22;2267;48.816;9.230;2022-08-19T06:24:50;23.30;91.20
4509;DHT22;2267;48.816;9.230;2022-08-19T06:27:19;23.30;91.30
4509;DHT22;2267;48.816;9.230;2022-08-19T06:29:46;23.20;91.40
4509;DHT22;2267;48.816;9.230;2022-08-19T06:32:16;23.20;91.40
4509;DHT22;2267;48.816;9.230;2022-08-19T06:34:44;23.20;91.70
4509;DHT22;2267;48.816;9.230;2022-08-19T06:37:12;23.20;91.60
4509;DHT22;2267;48.816;9.230;2022-08-19T06:39:41;23.20;91.80
4509;DHT22;2267;48.816;9.230;2022-08-19T06:42:08;23.20;91.90
4509;DHT22;2267;48.816;9.230;2022-08-19T06:44:39;23.20;91.80
4509;DHT22;2267;48.816;9.230;2022-08-19T06:47:19;23.20;91.90
4509;DHT22;2267;48.816;9.230;2022-08-19T06:49:53;23.20;92.00
4509;DHT22;2267;48.816;9.230;2022-08-19T06:52:33;23.20;92.00
4509;DHT22;2267;48.816;9.230;2022-08-19T06:55:03;23.30;92.00
4509;DHT22;2267;48.816;9.230;2022-08-19T06:57:32;23.20;92.00
4509;DHT22;2267;48.816;9.230;2022-08-19T06:59:59;23.30;92.20
4509;DHT22;2267;48.816;9.230;2022-08-19T07:02:26;23.30;91.90
4509;DHT22;2267;48.816;9.230;2022-08-19T07:04:53;23.30;91.90
4509;DHT22;2267;48.816;9.230;2022-08-19T07:07:21;23.30;91.90
4509;DHT22;2267;48.816;9.230;2022-08-19T07:09:50;23.30;91.90
4509;DHT22;2267;48.816;9.230;2022-08-19T07:12:27;23.20;91.90
4509;DHT22;2267;48.816;9.230;2022-08-19T07:14:56;23.20;92.00
4509;DHT22;2267;48.816;9.230;2022-08-19T07:17:24;23.20;92.10
4509;DHT22;2267;48.816;9.230;2022-08-19T07:19:51;23.20;92.10
4509;DHT22;2267;48.816;9.230;2022-08-19T07:22:20;23.30;92.20
4509;DHT22;2267;48.816;9.230;2022-08-19T07:24:50;23.30;92.20
4509;DHT22;2267;48.816;9.230;2022-08-19T07:27:18;23.30;92.20
4509;DHT22;2267;48.816;9.230;2022-08-19T07:29:52;23.30;92.10
4509;DHT22;2267;48.816;9.230;2022-08-19T07:32:23;23.30;91.90
4509;DHT22;2267;48.816;9.230;2022-08-19T07:34:54;23.30;91.80
4509;DHT22;2267;48.816;9.230;2022-08-19T07:37:23;23.30;91.70
4509;DHT22;2267;48.816;9.230;2022-08-19T07:39:53;23.20;91.80
4509;DHT22;2267;48.816;9.230;2022-08-19T07:42:20;23.20;91.80
4509;DHT22;2267;48.816;9.230;2022-08-19T07:44:48;23.20;91.90
4509;DHT22;2267;48.816;9.230;2022-08-19T07:47:16;23.20;91.90
4509;DHT22;2267;48.816;9.230;2022-08-19T07:50:05;23.20;91.80
4509;DHT22;2267;48.816;9.230;2022-08-19T07:52:33;23.20;91.80
4509;DHT22;2267;48.816;9.230;2022-08-19T07:55:04;23.10;91.80
4509;DHT22;2267;48.816;9.230;2022-08-19T07:57:31;23.20;91.90
4509;DHT22;2267;48.816;9.230;2022-08-19T07:59:58;23.20;92.00
4509;DHT22;2267;48.816;9.230;2022-08-19T08:02:25;23.20;92.00
4509;DHT22;2267;48.816;9.230;2022-08-19T08:04:52;23.20;92.20
4509;DHT22;2267;48.816;9.230;2022-08-19T08:07:38;23.10;92.40
4509;DHT22;2267;48.816;9.230;2022-08-19T08:10:24;23.10;92.80
4509;DHT22;2267;48.816;9.230;2022-08-19T08:12:52;23.10;92.90
4509;DHT22;2267;48.816;9.230;2022-08-19T08:15:38;23.10;92.90
4509;DHT22;2267;48.816;9.230;2022-08-19T08:18:10;23.20;93.10
4509;DHT22;2267;48.816;9.230;2022-08-19T08:20:38;23.20;93.20
4509;DHT22;2267;48.816;9.230;2022-08-19T08:23:05;23.20;93.40
4509;DHT22;2267;48.816;9.230;2022-08-19T08:26:05;23.20;93.50
4509;DHT22;2267;48.816;9.230;2022-08-19T08:28:32;23.20;93.50
4509;DHT22;2267;48.816;9.230;2022-08-19T08:30:59;23.20;93.70
4509;DHT22;2267;48.816;9.230;2022-08-19T08:33:28;23.20;94.00
4509;DHT22;2267;48.816;9.230;2022-08-19T08:36:10;23.20;94.00
4509;DHT22;2267;48.816;9.230;2022-08-19T08:38:38;23.20;94.20
4509;DHT22;2267;48.816;9.230;2022-08-19T08:44:23;23.20;94.60
4509;DHT22;2267;48.816;9.230;2022-08-19T08:47:01;23.20;94.40
4509;DHT22;2267;48.816;9.230;2022-08-19T08:49:48;23.20;94.30
4509;DHT22;2267;48.816;9.230;2022-08-19T08:52:26;23.20;94.30
4509;DHT22;2267;48.816;9.230;2022-08-19T08:55:00;23.20;94.40
4509;DHT22;2267;48.816;9.230;2022-08-19T08:57:56;23.30;94.50
4509;DHT22;2267;48.816;9.230;2022-08-19T09:00:31;23.30;94.40
4509;DHT22;2267;48.816;9.230;2022-08-19T09:02:59;23.40;94.40
4509;DHT22;2267;48.816;9.230;2022-08-19T09:08:40;23.50;94.50
4509;DHT22;2267;48.816;9.230;2022-08-19T09:11:15;23.50;94.10
4509;DHT22;2267;48.816;9.230;2022-08-19T09:17:04;23.60;94.00
4509;DHT22;2267;48.816;9.230;2022-08-19T09:19:36;23.60;94.20
4509;DHT22;2267;48.816;9.230;2022-08-19T09:22:12;23.60;94.10
4509;DHT22;2267;48.816;9.230;2022-08-19T09:24:51;23.60;94.30
4509;DHT22;2267;48.816;9.230;2022-08-19T09:27:22;23.60;94.20
4509;DHT22;2267;48.816;9.230;2022-08-19T09:30:34;23.50;94.30
4509;DHT22;2267;48.816;9.230;2022-08-19T09:33:04;23.60;94.60
4509;DHT22;2267;48.816;9.230;2022-08-19T09:35:32;23.50;94.10
4509;DHT22;2267;48.816;9.230;2022-08-19T09:38:19;23.50;94.30
4509;DHT22;2267;48.816;9.230;2022-08-19T09:40:46;23.50;94.20
4509;DHT22;2267;48.816;9.230;2022-08-19T09:43:13;23.60;94.30
4509;DHT22;2267;48.816;9.230;2022-08-19T09:45:40;23.60;94.20
4509;DHT22;2267;48.816;9.230;2022-08-19T09:48:07;23.60;94.20
4509;DHT22;2267;48.816;9.230;2022-08-19T09:50:37;23.60;94.10
4509;DHT22;2267;48.816;9.230;2022-08-19T09:53:17;23.60;94.10
4509;DHT22;2267;48.816;9.230;2022-08-19T09:55:44;23.60;94.40
4509;DHT22;2267;48.816;9.230;2022-08-19T09:58:11;23.60;94.40
4509;DHT22;2267;48.816;9.230;2022-08-19T10:00:38;23.60;94.40
4509;DHT22;2267;48.816;9.230;2022-08-19T10:03:05;23.60;94.50
4509;DHT22;2267;48.816;9.230;2022-08-19T10:05:32;23.60;94.50
4509;DHT22;2267;48.816;9.230;2022-08-19T10:08:24;23.70;94.90
4509;DHT22;2267;48.816;9.230;2022-08-19T10:10:53;23.70;95.00
4509;DHT22;2267;48.816;9.230;2022-08-19T10:13:24;23.70;94.90
4509;DHT22;2267;48.816;9.230;2022-08-19T10:15:54;23.70;94.50
4509;DHT22;2267;48.816;9.230;2022-08-19T10:18:23;23.70;94.40
4509;DHT22;2267;48.816;9.230;2022-08-19T10:20:51;23.70;94.30
4509;DHT22;2267;48.816;9.230;2022-08-19T10:23:21;23.70;94.40
4509;DHT22;2267;48.816;9.230;2022-08-19T10:25:49;23.70;94.20
4509;DHT22;2267;48.816;9.230;2022-08-19T10:28:16;23.70;94.50
4509;DHT22;2267;48.816;9.230;2022-08-19T10:30:45;23.70;94.10
4509;DHT22;2267;48.816;9.230;2022-08-19T10:33:13;23.70;94.20
4509;DHT22;2267;48.816;9.230;2022-08-19T10:35:40;23.70;94.30
4509;DHT22;2267;48.816;9.230;2022-08-19T10:38:22;23.70;94.30
4509;DHT22;2267;48.816;9.230;2022-08-19T10:41:05;23.70;94.20
4509;DHT22;2267;48.816;9.230;2022-08-19T10:43:33;23.70;94.10
4509;DHT22;2267;48.816;9.230;2022-08-19T10:46:04;23.80;94.00
4509;DHT22;2267;48.816;9.230;2022-08-19T10:48:40;23.80;94.10
4509;DHT22;2267;48.816;9.230;2022-08-19T10:51:08;23.80;93.90
4509;DHT22;2267;48.816;9.230;2022-08-19T10:53:54;23.90;93.90
4509;DHT22;2267;48.816;9.230;2022-08-19T10:56:22;23.90;93.70
4509;DHT22;2267;48.816;9.230;2022-08-19T10:59:08;23.90;93.80
4509;DHT22;2267;48.816;9.230;2022-08-19T11:01:35;23.90;93.70
4509;DHT22;2267;48.816;9.230;2022-08-19T11:04:03;23.90;93.90
4509;DHT22;2267;48.816;9.230;2022-08-19T11:06:34;23.90;94.10
4509;DHT22;2267;48.816;9.230;2022-08-19T11:09:00;23.90;94.30
4509;DHT22;2267;48.816;9.230;2022-08-19T11:11:27;23.90;93.90
4509;DHT22;2267;48.816;9.230;2022-08-19T11:13:55;23.90;93.50
4509;DHT22;2267;48.816;9.230;2022-08-19T11:16:24;23.90;93.30
4509;DHT22;2267;48.816;9.230;2022-08-19T11:18:54;23.90;93.30
4509;DHT22;2267;48.816;9.230;2022-08-19T11:21:29;23.90;93.10
4509;DHT22;2267;48.816;9.230;2022-08-19T11:24:00;24.00;92.80
4509;DHT22;2267;48.816;9.230;2022-08-19T11:26:29;24.00;92.80
4509;DHT22;2267;48.816;9.230;2022-08-19T11:28:58;24.00;92.80
4509;DHT22;2267;48.816;9.230;2022-08-19T11:31:33;24.10;92.60
4509;DHT22;2267;48.816;9.230;2022-08-19T11:34:03;24.10;92.60
4509;DHT22;2267;48.816;9.230;2022-08-19T11:36:31;24.10;92.50
4509;DHT22;2267;48.816;9.230;2022-08-19T11:38:59;24.20;91.90
4509;DHT22;2267;48.816;9.230;2022-08-19T11:41:26;24.20;91.90
4509;DHT22;2267;48.816;9.230;2022-08-19T11:43:54;24.20;91.70
4509;DHT22;2267;48.816;9.230;2022-08-19T11:46:27;24.20;91.70
4509;DHT22;2267;48.816;9.230;2022-08-19T11:48:59;24.20;91.80
4509;DHT22;2267;48.816;9.230;2022-08-19T11:51:27;24.20;91.90
4509;DHT22;2267;48.816;9.230;2022-08-19T11:53:56;24.10;91.90
4509;DHT22;2267;48.816;9.230;2022-08-19T11:56:24;24.10;91.90
4509;DHT22;2267;48.816;9.230;2022-08-19T11:58:52;24.20;91.70
4509;DHT22;2267;48.816;9.230;2022-08-19T12:01:22;24.20;91.40
4509;DHT22;2267;48.816;9.230;2022-08-19T12:03:51;24.30;91.40
4509;DHT22;2267;48.816;9.230;2022-08-19T12:06:21;24.30;91.50
4509;DHT22;2267;48.816;9.230;2022-08-19T12:09:02;24.30;91.70
4509;DHT22;2267;48.816;9.230;2022-08-19T12:11:31;24.30;91.60
4509;DHT22;2267;48.816;9.230;2022-08-19T12:14:00;24.30;91.50
4509;DHT22;2267;48.816;9.230;2022-08-19T12:16:29;24.30;91.40
4509;DHT22;2267;48.816;9.230;2022-08-19T12:18:58;24.30;91.30
4509;DHT22;2267;48.816;9.230;2022-08-19T12:21:31;24.30;91.50
4509;DHT22;2267;48.816;9.230;2022-08-19T12:23:59;24.30;91.70
4509;DHT22;2267;48.816;9.230;2022-08-19T12:26:28;24.30;92.20
4509;DHT22;2267;48.816;9.230;2022-08-19T12:28:55;24.30;94.60
4509;DHT22;2267;48.816;9.230;2022-08-19T12:31:22;24.20;95.10
4509;DHT22;2267;48.816;9.230;2022-08-19T12:33:49;24.20;95.70
4509;DHT22;2267;48.816;9.230;2022-08-19T12:36:16;24.10;96.10
4509;DHT22;2267;48.816;9.230;2022-08-19T12:38:44;24.10;96.20
4509;DHT22;2267;48.816;9.230;2022-08-19T12:41:13;24.10;96.40
4509;DHT22;2267;48.816;9.230;2022-08-19T12:43:41;24.10;96.50
4509;DHT22;2267;48.816;9.230;2022-08-19T12:46:10;24.00;96.80
4509;DHT22;2267;48.816;9.230;2022-08-19T12:48:38;23.90;97.00
4509;DHT22;2267;48.816;9.230;2022-08-19T12:51:10;23.90;97.10
4509;DHT22;2267;48.816;9.230;2022-08-19T12:53:37;23.90;97.30
4509;DHT22;2267;48.816;9.230;2022-08-19T12:56:06;23.90;97.50
4509;DHT22;2267;48.816;9.230;2022-08-19T12:58:38;24.00;97.70
4509;DHT22;2267;48.816;9.230;2022-08-19T13:01:13;23.90;97.60
4509;DHT22;2267;48.816;9.230;2022-08-19T13:03:45;23.90;97.70
4509;DHT22;2267;48.816;9.230;2022-08-19T13:06:13;23.90;97.70
4509;DHT22;2267;48.816;9.230;2022-08-19T13:08:44;23.90;97.80
4509;DHT22;2267;48.816;9.230;2022-08-19T13:11:17;23.90;97.90
4509;DHT22;2267;48.816;9.230;2022-08-19T13:13:46;23.80;98.00
4509;DHT22;2267;48.816;9.230;2022-08-19T13:16:14;23.70;98.20
4509;DHT22;2267;48.816;9.230;2022-08-19T13:18:43;23.70;98.40
4509;DHT22;2267;48.816;9.230;2022-08-19T13:21:10;23.60;98.30
4509;DHT22;2267;48.816;9.230;2022-08-19T13:23:40;23.60;98.40
4509;DHT22;2267;48.816;9.230;2022-08-19T13:26:09;23.60;98.50
4509;DHT22;2267;48.816;9.230;2022-08-19T13:28:36;23.60;98.80
4509;DHT22;2267;48.816;9.230;2022-08-19T13:31:22;23.60;99.00
4509;DHT22;2267;48.816;9.230;2022-08-19T13:34:08;23.50;99.40
4509;DHT22;2267;48.816;9.230;2022-08-19T13:36:36;23.50;99.40
4509;DHT22;2267;48.816;9.230;2022-08-19T13:39:04;23.50;99.60
4509;DHT22;2267;48.816;9.230;2022-08-19T13:41:31;23.50;99.60
4509;DHT22;2267;48.816;9.230;2022-08-19T13:44:00;23.50;99.60
4509;DHT22;2267;48.816;9.230;2022-08-19T13:46:28;23.40;99.70
4509;DHT22;2267;48.816;9.230;2022-08-19T13:48:56;23.40;99.70
4509;DHT22;2267;48.816;9.230;2022-08-19T13:51:23;23.30;99.90
4509;DHT22;2267;48.816;9.230;2022-08-19T13:53:50;23.20;99.90
4509;DHT22;2267;48.816;9.230;2022-08-19T13:56:18;23.20;99.90
4509;DHT22;2267;48.816;9.230;2022-08-19T13:58:52;23.20;99.90
4509;DHT22;2267;48.816;9.230;2022-08-19T14:01:23;23.20;99.90
4509;DHT22;2267;48.816;9.230;2022-08-19T14:03:50;23.20;99.90
4509;DHT22;2267;48.816;9.230;2022-08-19T14:06:18;23.20;99.90
4509;DHT22;2267;48.816;9.230;2022-08-19T14:08:45;23.10;99.90
4509;DHT22;2267;48.816;9.230;2022-08-19T14:11:12;23.10;99.90
4509;DHT22;2267;48.816;9.230;2022-08-19T14:13:39;23.00;99.90
4509;DHT22;2267;48.816;9.230;2022-08-19T14:16:08;23.00;99.90
4509;DHT22;2267;48.816;9.230;2022-08-19T14:18:35;23.00;99.90
4509;DHT22;2267;48.816;9.230;2022-08-19T14:21:03;23.00;99.90
4509;DHT22;2267;48.816;9.230;2022-08-19T14:23:32;23.00;99.90
4509;DHT22;2267;48.816;9.230;2022-08-19T14:26:10;22.90;99.90
4509;DHT22;2267;48.816;9.230;2022-08-19T14:28:39;22.90;99.90
4509;DHT22;2267;48.816;9.230;2022-08-19T14:31:13;22.90;99.90
4509;DHT22;2267;48.816;9.230;2022-08-19T14:33:43;22.90;99.90
4509;DHT22;2267;48.816;9.230;2022-08-19T14:36:09;22.80;99.90
4509;DHT22;2267;48.816;9.230;2022-08-19T14:38:36;22.90;99.90
4509;DHT22;2267;48.816;9.230;2022-08-19T14:41:16;22.90;99.90
4509;DHT22;2267;48.816;9.230;2022-08-19T14:43:45;23.00;99.90
4509;DHT22;2267;48.816;9.230;2022-08-19T14:46:14;23.00;99.90
4509;DHT22;2267;48.816;9.230;2022-08-19T14:48:42;23.00;99.90
4509;DHT22;2267;48.816;9.230;2022-08-19T14:51:09;23.00;99.90
4509;DHT22;2267;48.816;9.230;2022-08-19T14:53:37;23.00;99.90
4509;DHT22;2267;48.816;9.230;2022-08-19T14:56:09;23.00;99.90
4509;DHT22;2267;48.816;9.230;2022-08-19T14:58:36;23.00;99.90
4509;DHT22;2267;48.816;9.230;2022-08-19T15:01:04;23.00;99.90
4509;DHT22;2267;48.816;9.230;2022-08-19T15:03:31;23.00;99.90
4509;DHT22;2267;48.816;9.230;2022-08-19T15:06:00;23.00;99.90
4509;DHT22;2267;48.816;9.230;2022-08-19T15:08:29;23.00;99.90
4509;DHT22;2267;48.816;9.230;2022-08-19T15:10:57;23.10;99.90
4509;DHT22;2267;48.816;9.230;2022-08-19T15:13:26;23.10;99.90
4509;DHT22;2267;48.816;9.230;2022-08-19T15:15:54;23.10;99.90
4509;DHT22;2267;48.816;9.230;2022-08-19T15:18:21;23.10;99.90
4509;DHT22;2267;48.816;9.230;2022-08-19T15:20:49;23.20;99.90
4509;DHT22;2267;48.816;9.230;2022-08-19T15:23:18;23.20;99.90
4509;DHT22;2267;48.816;9.230;2022-08-19T15:25:45;23.20;99.90
4509;DHT22;2267;48.816;9.230;2022-08-19T15:28:12;23.20;99.90
4509;DHT22;2267;48.816;9.230;2022-08-19T15:30:40;23.20;99.90
4509;DHT22;2267;48.816;9.230;2022-08-19T15:33:07;23.30;99.90
4509;DHT22;2267;48.816;9.230;2022-08-19T15:35:34;23.30;99.90
4509;DHT22;2267;48.816;9.230;2022-08-19T15:38:00;23.30;99.90
4509;DHT22;2267;48.816;9.230;2022-08-19T15:40:27;23.30;99.90
4509;DHT22;2267;48.816;9.230;2022-08-19T15:42:55;23.30;99.90
4509;DHT22;2267;48.816;9.230;2022-08-19T15:45:22;23.40;99.90
4509;DHT22;2267;48.816;9.230;2022-08-19T15:47:49;23.40;99.90
4509;DHT22;2267;48.816;9.230;2022-08-19T15:50:18;23.40;99.90
4509;DHT22;2267;48.816;9.230;2022-08-19T15:53:01;23.50;99.90
4509;DHT22;2267;48.816;9.230;2022-08-19T15:55:31;23.40;99.90
4509;DHT22;2267;48.816;9.230;2022-08-19T15:58:02;23.50;99.90
4509;DHT22;2267;48.816;9.230;2022-08-19T16:00:59;23.40;99.90
4509;DHT22;2267;48.816;9.230;2022-08-19T16:03:47;23.40;99.90
4509;DHT22;2267;48.816;9.230;2022-08-19T16:06:46;23.50;99.90
4509;DHT22;2267;48.816;9.230;2022-08-19T16:09:14;23.50;99.90
4509;DHT22;2267;48.816;9.230;2022-08-19T16:11:42;23.60;99.90
4509;DHT22;2267;48.816;9.230;2022-08-19T16:14:16;23.60;99.90
4509;DHT22;2267;48.816;9.230;2022-08-19T16:16:45;23.60;99.90
4509;DHT22;2267;48.816;9.230;2022-08-19T16:19:14;23.60;99.90
4509;DHT22;2267;48.816;9.230;2022-08-19T16:21:44;23.60;99.90
4509;DHT22;2267;48.816;9.230;2022-08-19T16:24:12;23.60;99.90
4509;DHT22;2267;48.816;9.230;2022-08-19T16:26:41;23.60;99.90
4509;DHT22;2267;48.816;9.230;2022-08-19T16:29:08;23.70;99.90
4509;DHT22;2267;48.816;9.230;2022-08-19T16:31:40;23.70;99.90
4509;DHT22;2267;48.816;9.230;2022-08-19T16:34:08;23.80;99.90
4509;DHT22;2267;48.816;9.230;2022-08-19T16:36:35;23.70;99.90